createdAt,value
2019-02-26T00:00:32.531Z,4.73
2019-02-26T00:01:32.518Z,4.71
2019-02-26T00:02:32.659Z,4.73
2019-02-26T00:03:33.204Z,4.89
2019-02-26T00:04:34.486Z,4.90
2019-02-26T00:05:33.062Z,4.93
2019-02-26T00:06:32.464Z,4.92
2019-02-26T00:07:32.462Z,4.92
2019-02-26T00:08:33.508Z,4.94
2019-02-26T00:09:35.083Z,4.86
2019-02-26T00:10:35.882Z,4.84
2019-02-26T00:11:33.400Z,4.82
2019-02-26T00:12:33.287Z,4.75
2019-02-26T00:13:34.103Z,4.86
2019-02-26T00:14:32.369Z,4.59
2019-02-26T00:15:35.527Z,4.67
2019-02-26T00:16:35.411Z,4.59
2019-02-26T00:17:36.059Z,4.60
2019-02-26T00:18:32.375Z,4.74
2019-02-26T00:19:32.315Z,4.59
2019-02-26T00:20:34.356Z,4.66
2019-02-26T00:21:32.299Z,4.58
2019-02-26T00:22:34.035Z,4.50
2019-02-26T00:23:32.272Z,4.50
2019-02-26T00:24:35.035Z,4.55
2019-02-26T00:25:32.272Z,4.50
2019-02-26T00:26:34.029Z,4.55
2019-02-26T00:27:32.969Z,4.48
2019-02-26T00:28:34.047Z,4.49
2019-02-26T00:29:32.287Z,4.45
2019-02-26T00:30:33.401Z,4.40
2019-02-26T00:31:32.187Z,4.34
2019-02-26T00:32:33.812Z,4.32
2019-02-26T00:33:32.161Z,4.34
2019-02-26T00:34:32.766Z,4.28
2019-02-26T00:35:32.174Z,4.19
2019-02-26T00:36:33.728Z,4.35
2019-02-26T00:37:32.126Z,4.34
2019-02-26T00:38:33.061Z,4.41
2019-02-26T00:39:32.095Z,4.38
2019-02-26T00:40:34.225Z,4.41
2019-02-26T00:41:33.564Z,4.35
2019-02-26T00:42:33.823Z,4.26
2019-02-26T00:43:32.914Z,4.30
2019-02-26T00:44:32.777Z,4.23
2019-02-26T00:45:34.121Z,4.31
2019-02-26T00:46:32.594Z,4.35
2019-02-26T00:47:34.002Z,4.24
2019-02-26T00:48:33.652Z,4.24
2019-02-26T00:49:32.008Z,4.24
2019-02-26T00:50:33.147Z,4.28
2019-02-26T00:51:31.972Z,4.17
2019-02-26T00:52:32.720Z,4.14
2019-02-26T00:53:33.085Z,4.13
2019-02-26T00:54:34.279Z,4.01
2019-02-26T00:55:32.710Z,4.08
2019-02-26T00:56:33.858Z,4.13
2019-02-26T00:57:33.526Z,4.04
2019-02-26T00:58:32.085Z,4.02
2019-02-26T00:59:31.881Z,4.04
2019-02-26T01:00:33.265Z,4.02
2019-02-26T01:01:31.865Z,4.01
2019-02-26T01:02:31.840Z,4.10
2019-02-26T01:03:31.830Z,4.08
2019-02-26T01:04:31.822Z,4.13
2019-02-26T01:05:31.813Z,4.10
2019-02-26T01:06:33.488Z,4.13
2019-02-26T01:07:31.785Z,4.08
2019-02-26T01:08:31.774Z,4.08
2019-02-26T01:09:33.889Z,3.96
2019-02-26T01:10:31.780Z,4.02
2019-02-26T01:11:31.755Z,3.94
2019-02-26T01:12:33.039Z,3.96
2019-02-26T01:13:32.262Z,3.87
2019-02-26T01:14:31.745Z,3.91
2019-02-26T01:15:31.697Z,3.86
2019-02-26T01:16:31.696Z,3.83
2019-02-26T01:17:33.457Z,3.91
2019-02-26T01:18:31.676Z,3.86
2019-02-26T01:19:32.157Z,3.74
2019-02-26T01:20:32.042Z,3.69
2019-02-26T01:21:33.541Z,3.74
2019-02-26T01:22:33.031Z,3.63
2019-02-26T01:23:31.613Z,3.59
2019-02-26T01:24:32.719Z,3.76
2019-02-26T01:25:31.600Z,3.84
2019-02-26T01:26:31.581Z,3.87
2019-02-26T01:27:31.569Z,3.83
2019-02-26T01:28:31.555Z,3.77
2019-02-26T01:29:32.344Z,3.77
2019-02-26T01:30:33.781Z,3.76
2019-02-26T01:31:32.174Z,3.73
2019-02-26T01:32:31.513Z,3.87
2019-02-26T01:33:32.159Z,3.80
2019-02-26T01:34:31.485Z,3.77
2019-02-26T01:35:33.147Z,3.80
2019-02-26T01:36:31.507Z,3.81
2019-02-26T01:37:32.196Z,3.74
2019-02-26T01:38:31.447Z,3.76
2019-02-26T01:39:31.436Z,3.70
2019-02-26T01:40:31.428Z,3.70
2019-02-26T01:41:31.413Z,3.56
2019-02-26T01:42:31.732Z,3.50
2019-02-26T01:43:31.384Z,3.51
2019-02-26T01:44:32.947Z,3.45
2019-02-26T01:45:32.395Z,3.40
2019-02-26T01:46:32.263Z,3.41
2019-02-26T01:47:31.366Z,3.51
2019-02-26T01:48:32.206Z,3.48
2019-02-26T01:49:31.326Z,3.59
2019-02-26T01:50:33.227Z,3.56
2019-02-26T01:51:31.306Z,3.56
2019-02-26T01:52:31.305Z,3.55
2019-02-26T01:53:31.276Z,3.62
2019-02-26T01:54:33.015Z,3.76
2019-02-26T01:55:31.274Z,3.69
2019-02-26T01:56:31.240Z,3.78
2019-02-26T01:57:31.231Z,3.70
2019-02-26T01:58:33.431Z,3.80
2019-02-26T01:59:33.590Z,3.81
2019-02-26T02:00:31.201Z,3.77
2019-02-26T02:01:31.191Z,3.76
2019-02-26T02:02:31.177Z,3.73
2019-02-26T02:03:32.620Z,3.70
2019-02-26T02:04:32.097Z,3.58
2019-02-26T02:05:31.465Z,3.58
2019-02-26T02:06:33.098Z,3.41
2019-02-26T02:07:31.126Z,3.44
2019-02-26T02:08:31.112Z,3.45
2019-02-26T02:09:31.099Z,3.40
2019-02-26T02:10:31.084Z,3.37
2019-02-26T02:11:32.992Z,3.41
2019-02-26T02:12:32.431Z,3.36
2019-02-26T02:13:32.969Z,3.37
2019-02-26T02:14:31.049Z,3.18
2019-02-26T02:15:31.028Z,3.18
2019-02-26T02:16:31.820Z,3.21
2019-02-26T02:17:33.292Z,3.22
2019-02-26T02:18:31.002Z,3.13
2019-02-26T02:19:32.666Z,3.18
2019-02-26T02:20:30.985Z,3.14
2019-02-26T02:21:33.191Z,3.03
2019-02-26T02:22:32.918Z,2.98
2019-02-26T02:23:30.962Z,3.08
2019-02-26T02:24:30.932Z,2.98
2019-02-26T02:25:33.144Z,2.97
2019-02-26T02:26:30.911Z,2.97
2019-02-26T02:27:33.158Z,2.97
2019-02-26T02:28:32.818Z,2.90
2019-02-26T02:29:30.878Z,2.93
2019-02-26T02:30:31.778Z,2.97
2019-02-26T02:31:34.615Z,2.89
2019-02-26T02:32:32.348Z,2.93
2019-02-26T02:33:33.093Z,2.87
2019-02-26T02:34:33.015Z,2.93
2019-02-26T02:35:31.808Z,2.97
2019-02-26T02:36:30.803Z,2.98
2019-02-26T02:37:31.952Z,3.01
2019-02-26T02:38:30.774Z,2.97
2019-02-26T02:39:30.770Z,2.97
2019-02-26T02:40:30.753Z,2.87
2019-02-26T02:41:30.753Z,2.82
2019-02-26T02:42:30.747Z,2.77
2019-02-26T02:43:30.726Z,2.77
2019-02-26T02:44:30.711Z,2.65
2019-02-26T02:45:30.716Z,2.67
2019-02-26T02:46:30.725Z,2.57
2019-02-26T02:47:33.778Z,2.62
2019-02-26T02:48:31.667Z,2.64
2019-02-26T02:49:32.761Z,2.60
2019-02-26T02:50:31.648Z,2.62
2019-02-26T02:51:31.536Z,2.69
2019-02-26T02:52:33.114Z,2.62
2019-02-26T02:53:32.347Z,2.71
2019-02-26T02:54:30.627Z,2.72
2019-02-26T02:55:30.592Z,2.77
2019-02-26T02:56:31.380Z,2.74
2019-02-26T02:57:32.675Z,2.95
2019-02-26T02:58:30.565Z,3.08
2019-02-26T02:59:31.015Z,3.18
2019-02-26T03:00:32.216Z,3.23
2019-02-26T03:01:30.528Z,3.16
2019-02-26T03:02:30.522Z,3.05
2019-02-26T03:03:30.513Z,3.01
2019-02-26T03:04:31.706Z,3.07
2019-02-26T03:05:33.677Z,2.89
2019-02-26T03:06:32.384Z,2.97
2019-02-26T03:07:30.471Z,2.85
2019-02-26T03:08:30.452Z,2.80
2019-02-26T03:09:31.705Z,2.87
2019-02-26T03:10:31.682Z,2.83
2019-02-26T03:11:30.418Z,2.80
2019-02-26T03:12:30.409Z,2.72
2019-02-26T03:13:30.397Z,2.64
2019-02-26T03:14:33.148Z,2.69
2019-02-26T03:15:33.750Z,2.69
2019-02-26T03:16:30.377Z,2.67
2019-02-26T03:17:30.401Z,2.62
2019-02-26T03:18:30.352Z,2.57
2019-02-26T03:19:32.663Z,2.64
2019-02-26T03:20:31.365Z,2.74
2019-02-26T03:21:31.315Z,2.67
2019-02-26T03:22:30.332Z,2.69
2019-02-26T03:23:31.366Z,2.64
2019-02-26T03:24:31.476Z,2.62
2019-02-26T03:25:30.271Z,2.64
2019-02-26T03:26:30.262Z,2.69
2019-02-26T03:27:31.187Z,2.62
2019-02-26T03:28:34.917Z,2.57
2019-02-26T03:29:31.224Z,2.50
2019-02-26T03:30:34.044Z,2.46
2019-02-26T03:31:35.249Z,2.54
2019-02-26T03:32:31.200Z,2.51
2019-02-26T03:33:30.206Z,2.47
2019-02-26T03:34:30.176Z,2.51
2019-02-26T03:35:30.197Z,2.47
2019-02-26T03:36:31.605Z,2.49
2019-02-26T03:37:31.315Z,2.54
2019-02-26T03:38:30.159Z,2.60
2019-02-26T03:39:30.122Z,2.60
2019-02-26T03:40:33.153Z,2.60
2019-02-26T03:41:31.280Z,2.60
2019-02-26T03:42:30.084Z,2.62
2019-02-26T03:43:31.431Z,2.62
2019-02-26T03:44:30.451Z,2.61
2019-02-26T03:45:30.077Z,2.72
2019-02-26T03:46:30.053Z,2.77
2019-02-26T03:47:30.031Z,2.75
2019-02-26T03:48:30.022Z,2.75
2019-02-26T03:49:30.026Z,2.69
2019-02-26T03:50:30.037Z,2.80
2019-02-26T03:51:29.989Z,2.85
2019-02-26T03:52:32.105Z,2.89
2019-02-26T03:53:31.413Z,2.95
2019-02-26T03:54:29.958Z,2.95
2019-02-26T03:55:31.805Z,3.19
2019-02-26T03:56:29.951Z,3.21
2019-02-26T03:57:29.927Z,3.19
2019-02-26T03:58:29.913Z,3.23
2019-02-26T03:59:29.905Z,3.19
2019-02-26T04:00:31.835Z,3.31
2019-02-26T04:01:29.916Z,3.25
2019-02-26T04:02:29.873Z,3.23
2019-02-26T04:03:32.001Z,3.22
2019-02-26T04:04:31.185Z,3.18
2019-02-26T04:05:29.836Z,3.22
2019-02-26T04:06:30.601Z,3.22
2019-02-26T04:07:30.257Z,3.19
2019-02-26T04:08:30.287Z,3.31
2019-02-26T04:09:29.795Z,3.41
2019-02-26T04:10:29.786Z,3.51
2019-02-26T04:11:29.798Z,3.65
2019-02-26T04:12:29.773Z,3.60
2019-02-26T04:13:29.752Z,3.62
2019-02-26T04:14:30.694Z,3.63
2019-02-26T04:15:31.085Z,3.50
2019-02-26T04:16:32.262Z,3.47
2019-02-26T04:17:30.804Z,3.47
2019-02-26T04:18:34.186Z,3.45
2019-02-26T04:19:30.700Z,3.48
2019-02-26T04:20:29.670Z,3.51
2019-02-26T04:21:29.659Z,3.45
2019-02-26T04:22:29.694Z,3.42
2019-02-26T04:23:29.636Z,3.37
2019-02-26T04:24:32.600Z,3.31
2019-02-26T04:25:33.359Z,3.21
2019-02-26T04:26:34.436Z,3.25
2019-02-26T04:27:30.682Z,3.22
2019-02-26T04:28:32.981Z,3.18
2019-02-26T04:29:29.567Z,3.19
2019-02-26T04:30:34.037Z,3.08
2019-02-26T04:31:30.539Z,3.01
2019-02-26T04:32:29.528Z,2.98
2019-02-26T04:33:30.310Z,3.01
2019-02-26T04:34:29.521Z,3.05
2019-02-26T04:35:29.503Z,3.18
2019-02-26T04:36:29.487Z,3.18
2019-02-26T04:37:30.695Z,3.22
2019-02-26T04:38:31.160Z,3.34
2019-02-26T04:39:29.468Z,3.32
2019-02-26T04:40:30.512Z,3.37
2019-02-26T04:41:29.433Z,3.59
2019-02-26T04:42:29.416Z,3.36
2019-02-26T04:43:31.325Z,3.62
2019-02-26T04:44:31.343Z,3.40
2019-02-26T04:45:29.384Z,3.47
2019-02-26T04:46:31.592Z,3.40
2019-02-26T04:47:33.427Z,3.28
2019-02-26T04:48:31.710Z,3.25
2019-02-26T04:49:30.887Z,3.26
2019-02-26T04:50:32.395Z,3.19
2019-02-26T04:51:30.321Z,3.26
2019-02-26T04:52:30.115Z,3.19
2019-02-26T04:53:31.174Z,3.22
2019-02-26T04:54:31.034Z,3.40
2019-02-26T04:55:32.288Z,3.32
2019-02-26T04:56:33.523Z,3.36
2019-02-26T04:57:30.254Z,3.36
2019-02-26T04:58:29.238Z,3.36
2019-02-26T04:59:29.885Z,3.40
2019-02-26T05:00:32.147Z,3.41
2019-02-26T05:01:29.218Z,3.40
2019-02-26T05:02:29.207Z,3.48
2019-02-26T05:03:29.188Z,3.50
2019-02-26T05:04:30.692Z,3.53
2019-02-26T05:05:32.035Z,3.45
2019-02-26T05:06:30.189Z,3.56
2019-02-26T05:07:29.149Z,3.63
2019-02-26T05:08:31.549Z,3.56
2019-02-26T05:09:30.590Z,3.68
2019-02-26T05:10:31.824Z,3.70
2019-02-26T05:11:32.717Z,3.69
2019-02-26T05:12:31.653Z,3.74
2019-02-26T05:13:30.196Z,3.58
2019-02-26T05:14:29.073Z,3.58
2019-02-26T05:15:32.484Z,3.59
2019-02-26T05:16:31.882Z,3.60
2019-02-26T05:17:32.624Z,3.60
2019-02-26T05:18:31.635Z,3.65
2019-02-26T05:19:29.005Z,3.60
2019-02-26T05:20:31.251Z,3.63
2019-02-26T05:21:30.437Z,3.60
2019-02-26T05:22:30.882Z,3.63
2019-02-26T05:23:31.713Z,3.58
2019-02-26T05:24:28.947Z,3.56
2019-02-26T05:25:30.915Z,3.58
2019-02-26T05:26:30.254Z,3.62
2019-02-26T05:27:28.935Z,3.59
2019-02-26T05:28:29.875Z,3.70
2019-02-26T05:29:28.909Z,3.65
2019-02-26T05:30:28.887Z,3.68
2019-02-26T05:31:29.730Z,3.77
2019-02-26T05:32:30.919Z,3.77
2019-02-26T05:33:30.981Z,3.78
2019-02-26T05:34:28.878Z,3.76
2019-02-26T05:35:28.834Z,3.74
2019-02-26T05:36:31.065Z,3.84
2019-02-26T05:37:29.790Z,3.74
2019-02-26T05:38:30.584Z,3.70
2019-02-26T05:39:28.983Z,3.65
2019-02-26T05:40:28.789Z,3.62
2019-02-26T05:41:28.759Z,3.60
2019-02-26T05:42:28.749Z,3.50
2019-02-26T05:43:30.660Z,3.47
2019-02-26T05:44:28.737Z,3.50
2019-02-26T05:45:29.912Z,3.45
2019-02-26T05:46:29.489Z,3.36
2019-02-26T05:47:28.706Z,3.42
2019-02-26T05:48:28.687Z,3.41
2019-02-26T05:49:28.680Z,3.23
2019-02-26T05:50:30.189Z,3.26
2019-02-26T05:51:30.375Z,3.22
2019-02-26T05:52:30.681Z,3.23
2019-02-26T05:53:28.630Z,3.31
2019-02-26T05:54:28.620Z,3.37
2019-02-26T05:55:28.611Z,3.32
2019-02-26T05:56:28.591Z,3.40
2019-02-26T05:57:32.679Z,3.37
2019-02-26T05:58:28.576Z,3.40
2019-02-26T05:59:28.564Z,3.51
2019-02-26T06:00:32.736Z,3.47
2019-02-26T06:01:28.543Z,3.48
2019-02-26T06:02:28.548Z,3.40
2019-02-26T06:03:28.525Z,3.37
2019-02-26T06:04:28.509Z,3.37
2019-02-26T06:05:28.499Z,3.42
2019-02-26T06:06:28.485Z,3.47
2019-02-26T06:07:31.359Z,3.45
2019-02-26T06:08:32.751Z,3.59
2019-02-26T06:09:31.217Z,3.63
2019-02-26T06:10:32.397Z,3.74
2019-02-26T06:11:31.261Z,3.65
2019-02-26T06:12:32.418Z,3.83
2019-02-26T06:13:29.047Z,3.81
2019-02-26T06:14:31.285Z,3.70
2019-02-26T06:15:29.635Z,3.76
2019-02-26T06:16:28.978Z,3.81
2019-02-26T06:17:28.358Z,3.86
2019-02-26T06:18:28.409Z,3.91
2019-02-26T06:19:30.117Z,3.92
2019-02-26T06:20:30.805Z,4.01
2019-02-26T06:21:28.318Z,4.06
2019-02-26T06:22:29.633Z,4.08
2019-02-26T06:23:31.093Z,4.10
2019-02-26T06:24:30.749Z,4.13
2019-02-26T06:25:28.275Z,4.14
2019-02-26T06:26:32.639Z,4.20
2019-02-26T06:27:29.267Z,4.14
2019-02-26T06:28:28.242Z,4.16
2019-02-26T06:29:30.046Z,4.14
2019-02-26T06:30:28.217Z,4.12
2019-02-26T06:31:28.203Z,4.17
2019-02-26T06:32:32.195Z,4.20
2019-02-26T06:33:31.840Z,4.19
2019-02-26T06:34:28.176Z,4.24
2019-02-26T06:35:28.210Z,4.40
2019-02-26T06:36:28.687Z,4.44
2019-02-26T06:37:29.169Z,4.50
2019-02-26T06:38:30.368Z,4.60
2019-02-26T06:39:29.962Z,4.68
2019-02-26T06:40:28.125Z,4.89
2019-02-26T06:41:28.097Z,4.99
2019-02-26T06:42:28.814Z,5.02
2019-02-26T06:43:28.076Z,5.12
2019-02-26T06:44:28.066Z,5.14
2019-02-26T06:45:28.056Z,5.15
2019-02-26T06:46:29.372Z,5.10
2019-02-26T06:47:30.520Z,5.07
2019-02-26T06:48:29.818Z,4.73
2019-02-26T06:49:29.099Z,4.53
2019-02-26T06:50:27.995Z,4.45
2019-02-26T06:51:28.915Z,4.42
2019-02-26T06:52:29.887Z,4.34
2019-02-26T06:53:27.961Z,4.32
2019-02-26T06:54:29.135Z,4.34
2019-02-26T06:55:27.939Z,4.31
2019-02-26T06:56:30.003Z,4.35
2019-02-26T06:57:27.922Z,4.41
2019-02-26T06:58:27.907Z,4.32
2019-02-26T06:59:29.557Z,4.23
2019-02-26T07:00:29.417Z,4.32
2019-02-26T07:01:27.910Z,4.32
2019-02-26T07:02:28.937Z,4.32
2019-02-26T07:03:27.850Z,4.30
2019-02-26T07:04:30.149Z,4.37
2019-02-26T07:05:27.834Z,4.31
2019-02-26T07:06:30.170Z,4.35
2019-02-26T07:07:27.836Z,4.34
2019-02-26T07:08:30.400Z,4.34
2019-02-26T07:09:27.792Z,4.49
2019-02-26T07:10:29.539Z,4.48
2019-02-26T07:11:30.165Z,4.50
2019-02-26T07:12:27.764Z,4.52
2019-02-26T07:13:27.750Z,4.40
2019-02-26T07:14:29.732Z,4.48
2019-02-26T07:15:29.364Z,4.50
2019-02-26T07:16:27.714Z,4.55
2019-02-26T07:17:31.856Z,4.62
2019-02-26T07:18:28.698Z,4.63
2019-02-26T07:19:29.048Z,4.56
2019-02-26T07:20:33.900Z,4.58
2019-02-26T07:21:28.657Z,4.60
2019-02-26T07:22:27.647Z,4.62
2019-02-26T07:23:29.769Z,4.60
2019-02-26T07:24:27.636Z,4.60
2019-02-26T07:25:27.622Z,4.59
2019-02-26T07:26:27.604Z,4.70
2019-02-26T07:27:28.939Z,4.67
2019-02-26T07:28:27.584Z,4.82
2019-02-26T07:29:30.806Z,4.84
2019-02-26T07:30:28.558Z,4.73
2019-02-26T07:31:28.816Z,4.78
2019-02-26T07:32:27.537Z,4.92
2019-02-26T07:33:29.838Z,4.94
2019-02-26T07:34:27.568Z,4.87
2019-02-26T07:35:28.743Z,4.86
2019-02-26T07:36:28.142Z,4.93
2019-02-26T07:37:28.706Z,4.93
2019-02-26T07:38:27.716Z,5.00
2019-02-26T07:39:27.464Z,5.00
2019-02-26T07:40:28.415Z,5.08
2019-02-26T07:41:29.853Z,5.10
2019-02-26T07:42:27.429Z,5.20
2019-02-26T07:43:27.411Z,5.23
2019-02-26T07:44:28.381Z,5.26
2019-02-26T07:45:29.615Z,5.46
2019-02-26T07:46:27.392Z,5.89
2019-02-26T07:47:29.391Z,6.12
2019-02-26T07:48:29.509Z,6.24
2019-02-26T07:49:27.343Z,6.30
2019-02-26T07:50:31.533Z,6.27
2019-02-26T07:51:29.368Z,6.24
2019-02-26T07:52:28.467Z,6.17
2019-02-26T07:53:27.303Z,6.24
2019-02-26T07:54:28.811Z,6.22
2019-02-26T07:55:27.686Z,6.12
2019-02-26T07:56:28.174Z,6.04
2019-02-26T07:57:27.708Z,6.01
2019-02-26T07:58:27.287Z,6.05
2019-02-26T07:59:27.943Z,6.05
2019-02-26T08:00:27.226Z,6.12
2019-02-26T08:01:27.221Z,6.27
2019-02-26T08:02:27.912Z,6.28
2019-02-26T08:03:29.310Z,6.52
2019-02-26T08:04:27.207Z,6.60
2019-02-26T08:05:28.886Z,6.66
2019-02-26T08:06:29.209Z,6.92
2019-02-26T08:07:28.491Z,7.14
2019-02-26T08:08:27.148Z,7.15
2019-02-26T08:09:27.129Z,6.84
2019-02-26T08:10:27.111Z,6.89
2019-02-26T08:11:27.097Z,6.87
2019-02-26T08:12:27.094Z,6.78
2019-02-26T08:13:29.857Z,6.75
2019-02-26T08:14:27.071Z,6.72
2019-02-26T08:15:27.853Z,6.85
2019-02-26T08:16:27.735Z,6.96
2019-02-26T08:17:27.038Z,7.02
2019-02-26T08:18:27.056Z,7.10
2019-02-26T08:19:29.539Z,7.15
2019-02-26T08:20:28.433Z,7.17
2019-02-26T08:21:29.108Z,7.17
2019-02-26T08:22:27.567Z,7.28
2019-02-26T08:23:26.969Z,7.51
2019-02-26T08:24:26.984Z,7.98
2019-02-26T08:25:26.962Z,8.16
2019-02-26T08:26:29.072Z,8.19
2019-02-26T08:27:28.573Z,8.56
2019-02-26T08:28:26.920Z,8.73
2019-02-26T08:29:28.904Z,8.78
2019-02-26T08:30:26.889Z,8.84
2019-02-26T08:31:27.936Z,8.69
2019-02-26T08:32:28.627Z,8.45
2019-02-26T08:33:26.860Z,8.16
2019-02-26T08:34:26.844Z,7.93
2019-02-26T08:35:26.848Z,7.69
2019-02-26T08:36:26.829Z,7.80
2019-02-26T08:37:26.820Z,7.75
2019-02-26T08:38:29.368Z,7.91
2019-02-26T08:39:26.790Z,7.85
2019-02-26T08:40:26.785Z,7.90
2019-02-26T08:41:26.766Z,7.91
2019-02-26T08:42:26.765Z,8.01
2019-02-26T08:43:26.752Z,8.44
2019-02-26T08:44:28.157Z,8.63
2019-02-26T08:45:26.763Z,8.76
2019-02-26T08:46:26.928Z,9.02
2019-02-26T08:47:26.701Z,9.14
2019-02-26T08:48:27.138Z,9.16
2019-02-26T08:49:26.717Z,9.23
2019-02-26T08:50:30.692Z,9.06
2019-02-26T08:51:27.667Z,9.18
2019-02-26T08:52:28.849Z,9.18
2019-02-26T08:53:28.520Z,8.79
2019-02-26T08:54:28.419Z,8.63
2019-02-26T08:55:26.622Z,8.49
2019-02-26T08:56:28.290Z,8.69
2019-02-26T08:57:26.589Z,8.97
2019-02-26T08:58:28.280Z,9.36
2019-02-26T08:59:26.568Z,9.39
2019-02-26T09:00:26.572Z,9.59
2019-02-26T09:01:26.549Z,9.98
2019-02-26T09:02:26.553Z,9.86
2019-02-26T09:03:26.521Z,9.80
2019-02-26T09:04:26.507Z,9.58
2019-02-26T09:05:29.176Z,9.19
2019-02-26T09:06:26.990Z,8.85
2019-02-26T09:07:26.495Z,8.82
2019-02-26T09:08:26.464Z,8.70
2019-02-26T09:09:27.774Z,8.51
2019-02-26T09:10:26.458Z,8.05
2019-02-26T09:11:28.653Z,7.95
2019-02-26T09:12:27.257Z,7.98
2019-02-26T09:13:26.437Z,7.93
2019-02-26T09:14:26.408Z,8.08
2019-02-26T09:15:26.383Z,8.16
2019-02-26T09:16:28.317Z,8.12
2019-02-26T09:17:27.518Z,8.30
2019-02-26T09:18:28.139Z,8.49
2019-02-26T09:19:27.832Z,8.69
2019-02-26T09:20:26.343Z,8.58
2019-02-26T09:21:26.320Z,8.70
2019-02-26T09:22:28.371Z,8.58
2019-02-26T09:23:28.154Z,8.56
2019-02-26T09:24:26.289Z,8.52
2019-02-26T09:25:28.789Z,8.46
2019-02-26T09:26:26.268Z,8.51
2019-02-26T09:27:27.184Z,8.67
2019-02-26T09:28:27.079Z,8.53
2019-02-26T09:29:26.242Z,8.48
2019-02-26T09:30:28.187Z,8.27
2019-02-26T09:31:26.225Z,8.16
2019-02-26T09:32:28.244Z,8.15
2019-02-26T09:33:30.558Z,8.10
2019-02-26T09:34:29.307Z,8.12
2019-02-26T09:35:28.827Z,8.19
2019-02-26T09:36:29.185Z,8.24
2019-02-26T09:37:26.146Z,8.16
2019-02-26T09:38:26.678Z,8.26
2019-02-26T09:39:27.538Z,8.42
2019-02-26T09:40:28.862Z,8.49
2019-02-26T09:41:26.101Z,8.52
2019-02-26T09:42:27.757Z,8.51
2019-02-26T09:43:26.081Z,8.66
2019-02-26T09:44:26.930Z,8.70
2019-02-26T09:45:29.307Z,8.41
2019-02-26T09:46:26.059Z,8.48
2019-02-26T09:47:28.429Z,8.45
2019-02-26T09:48:26.025Z,8.23
2019-02-26T09:49:26.730Z,8.15
2019-02-26T09:50:26.016Z,8.31
2019-02-26T09:51:25.992Z,8.44
2019-02-26T09:52:27.696Z,8.37
2019-02-26T09:53:25.973Z,8.38
2019-02-26T09:54:26.037Z,8.45
2019-02-26T09:55:25.999Z,8.34
2019-02-26T09:56:25.937Z,8.37
2019-02-26T09:57:28.199Z,8.49
2019-02-26T09:58:25.924Z,8.55
2019-02-26T09:59:26.558Z,8.69
2019-02-26T10:00:29.113Z,8.61
2019-02-26T10:01:25.875Z,8.60
2019-02-26T10:02:26.507Z,8.67
2019-02-26T10:03:27.282Z,8.74
2019-02-26T10:04:26.602Z,8.85
2019-02-26T10:05:25.829Z,9.02
2019-02-26T10:06:25.829Z,9.14
2019-02-26T10:07:26.568Z,9.18
2019-02-26T10:08:27.970Z,9.14
2019-02-26T10:09:25.799Z,9.21
2019-02-26T10:10:28.349Z,9.06
2019-02-26T10:11:27.949Z,9.00
2019-02-26T10:12:28.027Z,8.84
2019-02-26T10:13:27.692Z,8.84
2019-02-26T10:14:26.962Z,8.89
2019-02-26T10:15:25.730Z,8.84
2019-02-26T10:16:28.133Z,8.81
2019-02-26T10:17:25.705Z,8.88
2019-02-26T10:18:27.786Z,9.03
2019-02-26T10:19:25.677Z,9.19
2019-02-26T10:20:28.619Z,9.40
2019-02-26T10:21:26.667Z,9.29
2019-02-26T10:22:26.215Z,9.28
2019-02-26T10:23:26.818Z,9.28
2019-02-26T10:24:27.404Z,9.26
2019-02-26T10:25:26.427Z,9.28
2019-02-26T10:26:26.309Z,9.50
2019-02-26T10:27:25.611Z,9.47
2019-02-26T10:28:25.582Z,9.59
2019-02-26T10:29:25.573Z,9.55
2019-02-26T10:30:27.698Z,9.59
2019-02-26T10:31:27.466Z,9.68
2019-02-26T10:32:26.491Z,9.77
2019-02-26T10:33:25.528Z,9.91
2019-02-26T10:34:30.031Z,10.10
2019-02-26T10:35:33.166Z,10.31
2019-02-26T10:36:30.346Z,10.07
2019-02-26T10:37:26.494Z,9.91
2019-02-26T10:38:29.582Z,9.80
2019-02-26T10:39:28.301Z,9.65
2019-02-26T10:40:34.628Z,9.77
2019-02-26T10:41:26.443Z,9.89
2019-02-26T10:42:25.432Z,10.16
2019-02-26T10:43:25.411Z,10.12
2019-02-26T10:44:25.399Z,9.97
2019-02-26T10:45:25.388Z,9.98
2019-02-26T10:46:25.380Z,9.97
2019-02-26T10:47:27.343Z,10.01
2019-02-26T10:48:27.963Z,10.15
2019-02-26T10:49:25.363Z,10.25
2019-02-26T10:50:31.115Z,10.23
2019-02-26T10:51:27.184Z,10.37
2019-02-26T10:52:26.371Z,10.46
2019-02-26T10:53:25.313Z,10.61
2019-02-26T10:54:25.290Z,10.64
2019-02-26T10:55:31.267Z,10.84
2019-02-26T10:56:28.685Z,10.92
2019-02-26T10:57:27.006Z,10.78
2019-02-26T10:58:25.278Z,10.63
2019-02-26T10:59:25.243Z,10.67
2019-02-26T11:00:27.899Z,10.54
2019-02-26T11:01:27.649Z,10.56
2019-02-26T11:02:27.486Z,10.60
2019-02-26T11:03:25.201Z,10.37
2019-02-26T11:04:34.484Z,10.17
2019-02-26T11:05:26.759Z,10.17
2019-02-26T11:06:25.159Z,10.17
2019-02-26T11:07:26.415Z,10.26
2019-02-26T11:08:28.933Z,10.33
2019-02-26T11:09:28.719Z,10.33
2019-02-26T11:10:25.319Z,10.41
2019-02-26T11:11:25.123Z,10.60
2019-02-26T11:12:27.733Z,10.57
2019-02-26T11:13:25.887Z,10.44
2019-02-26T11:14:25.066Z,10.51
2019-02-26T11:15:26.842Z,10.68
2019-02-26T11:16:27.830Z,10.53
2019-02-26T11:17:26.323Z,10.54
2019-02-26T11:18:25.032Z,10.35
2019-02-26T11:19:27.241Z,10.33
2019-02-26T11:20:27.700Z,10.31
2019-02-26T11:21:26.010Z,10.51
2019-02-26T11:22:27.067Z,10.61
2019-02-26T11:23:30.764Z,10.68
2019-02-26T11:24:28.216Z,10.79
2019-02-26T11:25:27.420Z,10.74
2019-02-26T11:26:24.936Z,10.49
2019-02-26T11:27:24.933Z,10.42
2019-02-26T11:28:27.465Z,10.30
2019-02-26T11:29:26.109Z,10.23
2019-02-26T11:30:27.997Z,10.38
2019-02-26T11:31:25.573Z,10.51
2019-02-26T11:32:27.180Z,10.59
2019-02-26T11:33:24.868Z,10.57
2019-02-26T11:34:25.486Z,10.60
2019-02-26T11:35:27.118Z,10.44
2019-02-26T11:36:25.181Z,10.60
2019-02-26T11:37:26.694Z,10.38
2019-02-26T11:38:24.807Z,10.31
2019-02-26T11:39:24.793Z,10.23
2019-02-26T11:40:27.246Z,10.22
2019-02-26T11:41:26.372Z,10.10
2019-02-26T11:42:26.178Z,9.94
2019-02-26T11:43:26.962Z,10.15
2019-02-26T11:44:25.789Z,10.31
2019-02-26T11:45:24.726Z,10.40
2019-02-26T11:46:25.330Z,10.34
2019-02-26T11:47:24.718Z,10.60
2019-02-26T11:48:25.938Z,10.76
2019-02-26T11:49:24.678Z,11.00
2019-02-26T11:50:28.223Z,11.18
2019-02-26T11:51:24.654Z,11.30
2019-02-26T11:52:24.648Z,11.19
2019-02-26T11:53:24.639Z,11.07
2019-02-26T11:54:24.646Z,10.90
2019-02-26T11:55:26.842Z,10.99
2019-02-26T11:56:25.702Z,11.11
2019-02-26T11:57:24.591Z,11.04
2019-02-26T11:58:26.903Z,11.19
2019-02-26T11:59:24.564Z,11.54
2019-02-26T12:00:25.858Z,11.80
2019-02-26T12:01:26.993Z,11.88
2019-02-26T12:03:29.750Z,11.35
2019-02-26T12:04:24.982Z,11.18
2019-02-26T12:05:32.840Z,11.08
2019-02-26T12:06:25.489Z,11.05
2019-02-26T12:07:25.629Z,10.99
2019-02-26T12:08:25.662Z,11.12
2019-02-26T12:09:24.459Z,11.08
2019-02-26T12:10:27.084Z,11.08
2019-02-26T12:11:25.433Z,11.08
2019-02-26T12:12:25.815Z,11.08
2019-02-26T12:13:25.070Z,11.00
2019-02-26T12:14:24.400Z,11.02
2019-02-26T12:15:24.391Z,11.18
2019-02-26T12:16:24.417Z,11.18
2019-02-26T12:17:24.365Z,11.05
2019-02-26T12:18:24.359Z,11.05
2019-02-26T12:19:25.680Z,11.19
2019-02-26T12:20:24.359Z,11.18
2019-02-26T12:21:25.176Z,11.11
2019-02-26T12:22:25.192Z,11.05
2019-02-26T12:23:24.319Z,11.10
2019-02-26T12:24:26.574Z,10.99
2019-02-26T12:25:24.279Z,10.86
2019-02-26T12:26:25.618Z,10.89
2019-02-26T12:27:24.272Z,11.00
2019-02-26T12:28:25.436Z,11.04
2019-02-26T12:29:25.993Z,10.97
2019-02-26T12:30:24.224Z,11.02
2019-02-26T12:31:25.366Z,11.00
2019-02-26T12:32:24.966Z,11.04
2019-02-26T12:33:24.201Z,11.02
2019-02-26T12:34:24.174Z,11.07
2019-02-26T12:35:24.169Z,11.02
2019-02-26T12:36:26.488Z,11.07
2019-02-26T12:37:24.148Z,10.93
2019-02-26T12:38:24.145Z,10.89
2019-02-26T12:39:25.128Z,10.86
2019-02-26T12:40:25.435Z,10.76
2019-02-26T12:41:24.093Z,10.93
2019-02-26T12:42:24.080Z,11.02
2019-02-26T12:43:24.076Z,11.04
2019-02-26T12:44:24.076Z,11.14
2019-02-26T12:45:26.129Z,11.12
2019-02-26T12:46:25.124Z,11.27
2019-02-26T12:47:24.636Z,11.37
2019-02-26T12:48:24.015Z,11.41
2019-02-26T12:49:24.017Z,11.41
2019-02-26T12:50:29.084Z,11.40
2019-02-26T12:51:26.315Z,11.36
2019-02-26T12:52:26.490Z,11.43
2019-02-26T12:53:23.964Z,11.37
2019-02-26T12:54:24.180Z,11.45
2019-02-26T12:55:29.578Z,11.65
2019-02-26T12:56:28.115Z,11.45
2019-02-26T12:57:26.944Z,11.37
2019-02-26T12:58:27.612Z,11.47
2019-02-26T12:59:23.904Z,11.54
2019-02-26T13:00:23.886Z,11.65
2019-02-26T13:01:23.884Z,11.66
2019-02-26T13:02:25.629Z,11.55
2019-02-26T13:03:23.851Z,11.50
2019-02-26T13:04:25.056Z,11.51
2019-02-26T13:05:23.830Z,11.60
2019-02-26T13:06:23.854Z,11.68
2019-02-26T13:07:23.810Z,11.84
2019-02-26T13:08:24.259Z,12.03
2019-02-26T13:09:26.776Z,12.09
2019-02-26T13:10:23.770Z,11.99
2019-02-26T13:11:25.018Z,11.95
2019-02-26T13:12:25.058Z,11.91
2019-02-26T13:13:24.748Z,11.70
2019-02-26T13:14:23.729Z,11.75